createdAt,value
2024-02-24T00:01:19.583Z,0.90
2024-02-24T00:03:47.211Z,1.10
2024-02-24T00:06:14.736Z,1.10
2024-02-24T00:08:43.514Z,1.00
2024-02-24T00:11:11.376Z,0.90
2024-02-24T00:13:38.945Z,0.90
2024-02-24T00:16:06.790Z,0.90
2024-02-24T00:18:34.956Z,1.20
2024-02-24T00:21:02.525Z,0.80
2024-02-24T00:23:30.758Z,0.90
2024-02-24T00:25:58.445Z,0.90
2024-02-24T00:28:26.029Z,0.98
2024-02-24T00:30:53.599Z,0.90
2024-02-24T00:33:21.108Z,1.20
2024-02-24T00:35:48.694Z,2.25
2024-02-24T00:38:16.345Z,1.42
2024-02-24T00:40:44.088Z,0.90
2024-02-24T00:43:11.612Z,0.80
2024-02-24T00:45:39.797Z,0.90
2024-02-24T00:48:07.516Z,0.95
2024-02-24T00:50:35.135Z,1.23
2024-02-24T00:53:02.955Z,0.73
2024-02-24T00:55:30.610Z,0.85
2024-02-24T00:57:58.118Z,1.13
2024-02-24T01:00:25.684Z,1.20
2024-02-24T01:02:54.123Z,0.85
2024-02-24T01:05:21.669Z,0.82
2024-02-24T01:07:49.321Z,0.80
2024-02-24T01:10:16.883Z,0.90
2024-02-24T01:12:44.651Z,0.70
2024-02-24T01:15:12.319Z,0.88
2024-02-24T01:17:39.966Z,0.85
2024-02-24T01:20:07.689Z,1.35
2024-02-24T01:22:35.250Z,1.10
2024-02-24T01:25:02.834Z,0.82
2024-02-24T01:27:30.385Z,1.20
2024-02-24T01:29:58.244Z,1.00
2024-02-24T01:32:25.909Z,0.90
2024-02-24T01:34:54.641Z,1.00
2024-02-24T01:37:22.232Z,1.02
2024-02-24T01:39:49.972Z,1.05
2024-02-24T01:42:17.499Z,1.10
2024-02-24T01:44:45.387Z,0.70
2024-02-24T01:47:13.029Z,0.93
2024-02-24T01:49:40.760Z,1.13
2024-02-24T01:52:08.633Z,0.95
2024-02-24T01:54:36.885Z,0.93
2024-02-24T01:57:04.739Z,1.05
2024-02-24T01:59:32.764Z,0.70
2024-02-24T02:02:00.291Z,0.93
2024-02-24T02:04:27.954Z,0.90
2024-02-24T02:06:55.672Z,1.15
2024-02-24T02:09:23.714Z,0.90
2024-02-24T02:14:24.541Z,1.20
2024-02-24T02:16:52.147Z,0.85
2024-02-24T02:19:19.752Z,1.13
2024-02-24T02:21:47.755Z,1.08
2024-02-24T02:24:17.193Z,1.27
2024-02-24T02:26:44.839Z,1.10
2024-02-24T02:29:13.031Z,1.48
2024-02-24T02:31:40.691Z,1.40
2024-02-24T02:34:08.379Z,1.48
2024-02-24T02:36:36.025Z,1.25
2024-02-24T02:39:03.584Z,1.10
2024-02-24T02:41:31.118Z,1.33
2024-02-24T02:43:58.656Z,1.20
2024-02-24T02:46:26.140Z,1.20
2024-02-24T02:48:53.978Z,1.25
2024-02-24T02:51:21.594Z,1.40
2024-02-24T02:53:49.115Z,1.40
2024-02-24T02:56:18.173Z,1.52
2024-02-24T02:58:45.712Z,1.42
2024-02-24T03:01:13.437Z,1.05
2024-02-24T03:03:41.080Z,1.90
2024-02-24T03:06:08.757Z,1.60
2024-02-24T03:08:36.409Z,1.60
2024-02-24T03:11:04.099Z,1.80
2024-02-24T03:13:32.529Z,2.05
2024-02-24T03:16:00.125Z,2.08
2024-02-24T03:18:27.675Z,1.70
2024-02-24T03:20:55.326Z,1.75
2024-02-24T03:23:22.888Z,2.25
2024-02-24T03:25:50.408Z,1.45
2024-02-24T03:28:18.050Z,1.30
2024-02-24T03:30:45.884Z,1.52
2024-02-24T03:33:16.551Z,1.60
2024-02-24T03:35:44.158Z,1.60
2024-02-24T03:38:11.680Z,1.17
2024-02-24T03:40:40.013Z,0.63
2024-02-24T03:43:07.500Z,1.10
2024-02-24T03:45:35.132Z,0.60
2024-02-24T03:48:02.846Z,1.20
2024-02-24T03:50:30.542Z,0.93
2024-02-24T03:52:58.080Z,1.55
2024-02-24T03:55:25.728Z,1.20
2024-02-24T03:57:53.348Z,1.70
2024-02-24T04:00:21.016Z,1.42
2024-02-24T04:02:48.642Z,1.20
2024-02-24T04:05:16.280Z,1.42
2024-02-24T04:07:43.826Z,1.60
2024-02-24T04:10:12.156Z,1.40
2024-02-24T04:12:39.724Z,1.40
2024-02-24T04:15:07.411Z,1.42
2024-02-24T04:17:35.054Z,1.23
2024-02-24T04:20:02.652Z,1.55
2024-02-24T04:22:30.189Z,1.40
2024-02-24T04:24:57.714Z,1.55
2024-02-24T04:27:25.212Z,1.35
2024-02-24T04:29:52.808Z,1.60
2024-02-24T04:32:20.309Z,1.42
2024-02-24T04:34:47.983Z,1.40
2024-02-24T04:37:15.658Z,1.60
2024-02-24T04:39:43.157Z,1.55
2024-02-24T04:42:10.865Z,1.73
2024-02-24T04:44:38.462Z,1.40
2024-02-24T04:47:06.194Z,1.83
2024-02-24T04:49:33.879Z,1.42
2024-02-24T04:52:01.436Z,1.50
2024-02-24T04:54:29.013Z,1.80
2024-02-24T04:56:56.539Z,1.70
2024-02-24T04:59:24.077Z,1.50
2024-02-24T05:01:51.798Z,1.35
2024-02-24T05:04:19.372Z,2.05
2024-02-24T05:06:46.949Z,1.63
2024-02-24T05:09:14.670Z,1.80
2024-02-24T05:11:42.440Z,1.35
2024-02-24T05:14:10.777Z,2.00
2024-02-24T05:16:42.094Z,1.58
2024-02-24T05:19:10.384Z,1.83
2024-02-24T05:21:38.558Z,1.60
2024-02-24T05:24:07.351Z,1.55
2024-02-24T05:26:34.844Z,2.25
2024-02-24T05:29:02.516Z,2.00
2024-02-24T05:31:30.122Z,1.77
2024-02-24T05:33:58.066Z,1.45
2024-02-24T05:38:53.514Z,1.40
2024-02-24T05:41:21.176Z,1.80
2024-02-24T05:43:48.721Z,1.40
2024-02-24T05:46:17.601Z,1.48
2024-02-24T05:48:46.658Z,1.10
2024-02-24T05:51:14.561Z,1.67
2024-02-24T05:53:42.275Z,1.33
2024-02-24T05:56:10.225Z,1.38
2024-02-24T05:58:37.879Z,1.35
2024-02-24T06:01:05.667Z,1.30
2024-02-24T06:03:33.430Z,2.10
2024-02-24T06:06:01.274Z,1.83
2024-02-24T06:08:29.007Z,1.75
2024-02-24T06:10:56.734Z,1.90
2024-02-24T06:13:24.399Z,1.77
2024-02-24T06:15:52.307Z,1.95
2024-02-24T06:18:21.099Z,2.05
2024-02-24T06:20:49.119Z,2.10
2024-02-24T06:23:16.780Z,1.25
2024-02-24T06:25:44.464Z,0.65
2024-02-24T06:28:12.863Z,0.50
2024-02-24T06:30:40.521Z,0.77
2024-02-24T06:33:08.649Z,0.50
2024-02-24T06:35:36.447Z,0.40
2024-02-24T06:38:04.146Z,0.60
2024-02-24T06:40:37.617Z,0.80
2024-02-24T06:43:12.589Z,0.60
2024-02-24T06:45:40.226Z,0.38
2024-02-24T06:48:08.161Z,0.60
2024-02-24T06:53:04.066Z,0.50
2024-02-24T06:58:04.687Z,0.70
2024-02-24T07:00:32.567Z,0.68
2024-02-24T07:03:00.482Z,0.80
2024-02-24T07:05:28.228Z,0.90
2024-02-24T07:07:56.368Z,0.77
2024-02-24T07:10:24.201Z,0.60
2024-02-24T07:12:51.918Z,1.80
2024-02-24T07:15:19.794Z,0.90
2024-02-24T07:17:47.797Z,1.45
2024-02-24T07:22:44.279Z,1.23
2024-02-24T07:25:12.976Z,0.77
2024-02-24T07:27:40.635Z,1.27
2024-02-24T07:30:08.700Z,2.63
2024-02-24T07:32:40.475Z,1.40
2024-02-24T07:35:10.016Z,0.93
2024-02-24T07:37:37.931Z,1.40
2024-02-24T07:40:05.687Z,1.05
2024-02-24T07:42:34.224Z,1.40
2024-02-24T07:45:02.694Z,0.70
2024-02-24T07:47:30.579Z,0.50
2024-02-24T07:49:58.367Z,0.70
2024-02-24T07:52:26.205Z,1.10
2024-02-24T07:54:54.221Z,1.10
2024-02-24T07:59:50.682Z,1.00
2024-02-24T08:02:20.488Z,0.70
2024-02-24T08:04:48.225Z,0.80
2024-02-24T08:07:16.008Z,0.75
2024-02-24T08:09:43.827Z,0.60
2024-02-24T08:12:11.551Z,0.70
2024-02-24T08:14:39.437Z,0.55
2024-02-24T08:17:07.696Z,0.60
2024-02-24T08:19:35.381Z,0.50
2024-02-24T08:22:03.004Z,0.70
2024-02-24T08:24:30.793Z,0.60
2024-02-24T08:26:58.562Z,0.73
2024-02-24T08:29:28.064Z,0.35
2024-02-24T08:31:55.788Z,0.60
2024-02-24T08:34:24.646Z,0.70
2024-02-24T08:36:55.318Z,0.73
2024-02-24T08:39:23.108Z,0.70
2024-02-24T08:41:50.783Z,0.70
2024-02-24T08:44:18.572Z,0.70
2024-02-24T08:46:46.187Z,0.70
2024-02-24T08:49:13.821Z,0.80
2024-02-24T08:51:41.528Z,0.80
2024-02-24T08:54:09.093Z,0.60
2024-02-24T08:56:37.678Z,0.60
2024-02-24T08:59:05.402Z,0.60
2024-02-24T09:01:33.119Z,0.80
2024-02-24T09:04:02.798Z,1.10
2024-02-24T09:06:32.800Z,0.68
2024-02-24T09:09:01.932Z,0.57
2024-02-24T09:11:29.618Z,0.93
2024-02-24T09:13:57.264Z,0.80
2024-02-24T09:16:24.827Z,0.95
2024-02-24T09:18:53.984Z,0.88
2024-02-24T09:21:21.909Z,0.95
2024-02-24T09:23:49.675Z,0.90
2024-02-24T09:28:44.999Z,1.08
2024-02-24T09:33:40.546Z,0.73
2024-02-24T09:36:08.378Z,1.00
2024-02-24T09:41:04.345Z,0.70
2024-02-24T09:43:32.146Z,0.73
2024-02-24T09:45:59.904Z,0.50
2024-02-24T09:48:30.607Z,0.60
2024-02-24T09:51:00.818Z,1.48
2024-02-24T09:53:28.553Z,4.38
2024-02-24T09:55:56.426Z,1.10
2024-02-24T09:58:24.680Z,1.52
2024-02-24T10:03:15.519Z,2.35
2024-02-24T10:05:43.942Z,1.00
2024-02-24T10:08:12.464Z,2.75
2024-02-24T10:10:40.195Z,2.10
2024-02-24T10:13:07.788Z,1.27
2024-02-24T10:15:36.730Z,1.15
2024-02-24T10:18:04.723Z,1.00
2024-02-24T10:20:32.380Z,1.63
2024-02-24T10:23:00.069Z,1.00
2024-02-24T10:25:27.886Z,1.40
2024-02-24T10:27:58.468Z,2.00
2024-02-24T10:30:26.787Z,0.80
2024-02-24T10:32:55.382Z,1.83
2024-02-24T10:35:23.445Z,2.22
2024-02-24T10:38:09.339Z,2.78
2024-02-24T10:40:39.944Z,0.95
2024-02-24T10:43:08.222Z,1.50
2024-02-24T10:50:18.110Z,3.40
2024-02-24T10:52:46.307Z,1.10
2024-02-24T10:55:14.288Z,1.73
2024-02-24T10:57:42.199Z,2.03
2024-02-24T11:00:28.821Z,1.02
2024-02-24T11:02:56.500Z,0.60
2024-02-24T11:05:24.231Z,1.38
2024-02-24T11:07:51.883Z,1.63
2024-02-24T11:12:47.416Z,1.80
2024-02-24T11:15:24.811Z,1.42
2024-02-24T11:17:54.185Z,6.72
2024-02-24T11:20:40.968Z,0.88
2024-02-24T11:25:36.456Z,1.00
2024-02-24T11:30:38.753Z,0.60
2024-02-24T11:33:25.639Z,0.68
2024-02-24T11:35:55.073Z,1.25
2024-02-24T11:38:23.508Z,1.35
2024-02-24T11:40:53.792Z,1.10
2024-02-24T11:43:21.526Z,0.93
2024-02-24T11:45:54.135Z,1.10
2024-02-24T11:48:22.124Z,1.17
2024-02-24T11:50:50.676Z,3.33
2024-02-24T11:53:18.855Z,1.00
2024-02-24T11:55:48.121Z,0.90
2024-02-24T12:00:43.837Z,0.60
2024-02-24T12:03:12.187Z,0.80
2024-02-24T12:05:39.725Z,1.08
2024-02-24T12:08:08.230Z,1.00
2024-02-24T12:10:39.650Z,0.90
2024-02-24T12:13:09.473Z,0.90
2024-02-24T12:15:37.763Z,0.93
2024-02-24T12:18:09.200Z,1.15
2024-02-24T12:20:45.080Z,0.68
2024-02-24T12:23:13.781Z,1.50
2024-02-24T12:25:41.595Z,1.33
2024-02-24T12:28:09.137Z,1.27
2024-02-24T12:30:37.554Z,1.00
2024-02-24T12:33:05.995Z,0.68
2024-02-24T12:35:34.178Z,1.08
2024-02-24T12:38:03.057Z,0.80
2024-02-24T12:40:31.560Z,0.82
2024-02-24T12:43:01.468Z,0.98
2024-02-24T12:45:29.123Z,1.25
2024-02-24T12:47:57.073Z,1.20
2024-02-24T12:50:25.754Z,1.20
2024-02-24T12:52:54.080Z,1.00
2024-02-24T12:55:22.085Z,0.80
2024-02-24T12:57:49.603Z,0.98
2024-02-24T13:00:17.272Z,1.30
2024-02-24T13:02:46.384Z,0.80
2024-02-24T13:05:14.066Z,1.00
2024-02-24T13:10:09.998Z,0.28
2024-02-24T13:15:05.364Z,0.70
2024-02-24T13:17:33.099Z,0.85
2024-02-24T13:20:02.136Z,0.82
2024-02-24T13:22:30.145Z,0.47
2024-02-24T13:24:57.633Z,0.30
2024-02-24T13:27:25.156Z,0.60
2024-02-24T13:29:52.931Z,0.60
2024-02-24T13:34:49.960Z,0.60
2024-02-24T13:37:18.127Z,1.05
2024-02-24T13:39:48.754Z,0.80
2024-02-24T13:42:16.475Z,0.80
2024-02-24T13:44:44.174Z,1.55
2024-02-24T13:47:11.903Z,0.70
2024-02-24T13:49:39.685Z,0.65
2024-02-24T13:52:07.428Z,1.35
2024-02-24T13:54:35.026Z,0.98
2024-02-24T13:57:03.610Z,0.70
2024-02-24T13:59:31.259Z,0.80
2024-02-24T14:02:01.841Z,0.70
2024-02-24T14:04:29.781Z,0.70
2024-02-24T14:06:57.670Z,0.70
2024-02-24T14:09:25.200Z,0.50
2024-02-24T14:11:54.140Z,0.73
2024-02-24T14:14:21.937Z,0.70
2024-02-24T14:16:49.645Z,0.82
2024-02-24T14:19:23.975Z,0.60
2024-02-24T14:21:51.901Z,0.65
2024-02-24T14:24:19.513Z,0.63
2024-02-24T14:26:47.036Z,0.70
2024-02-24T14:29:14.763Z,0.75
2024-02-24T14:31:42.318Z,1.00
2024-02-24T14:34:10.010Z,0.60
2024-02-24T14:36:37.754Z,0.75
2024-02-24T14:39:06.684Z,0.60
2024-02-24T14:41:34.441Z,0.80
2024-02-24T14:44:02.053Z,0.80
2024-02-24T14:46:29.586Z,0.85
2024-02-24T14:48:57.271Z,1.00
2024-02-24T14:51:24.907Z,1.10
2024-02-24T14:53:52.863Z,0.93
2024-02-24T14:56:20.837Z,0.98
2024-02-24T14:58:48.396Z,0.88
2024-02-24T15:01:16.192Z,0.95
2024-02-24T15:03:45.781Z,0.82
2024-02-24T15:06:15.608Z,0.88
2024-02-24T15:08:43.519Z,0.45
2024-02-24T15:13:38.857Z,0.60
2024-02-24T15:16:08.126Z,1.15
2024-02-24T15:18:36.203Z,0.73
2024-02-24T15:21:03.955Z,1.13
2024-02-24T15:23:31.763Z,0.75
2024-02-24T15:25:59.323Z,1.42
2024-02-24T15:30:54.812Z,0.77
2024-02-24T15:33:23.124Z,1.05
2024-02-24T15:35:50.773Z,1.10
2024-02-24T15:38:18.380Z,0.80
2024-02-24T15:40:45.911Z,0.80
2024-02-24T15:43:13.442Z,0.95
2024-02-24T15:45:40.945Z,0.68
2024-02-24T15:48:08.731Z,0.70
2024-02-24T15:50:36.480Z,0.73
2024-02-24T15:53:04.085Z,0.63
2024-02-24T15:55:31.662Z,1.00
2024-02-24T15:58:01.040Z,0.60
2024-02-24T16:00:28.506Z,0.73
2024-02-24T16:02:56.101Z,0.98
2024-02-24T16:05:24.096Z,0.93
2024-02-24T16:10:19.114Z,1.00
2024-02-24T16:12:48.520Z,0.80
2024-02-24T16:15:16.148Z,1.17
2024-02-24T16:17:43.792Z,0.75
2024-02-24T16:20:11.609Z,1.30
2024-02-24T16:22:40.730Z,0.45
2024-02-24T16:25:08.607Z,1.23
2024-02-24T16:30:04.012Z,1.35
2024-02-24T16:32:31.654Z,1.20
2024-02-24T16:34:59.298Z,1.38
2024-02-24T16:37:26.941Z,1.40
2024-02-24T16:39:56.810Z,1.52
2024-02-24T16:42:24.418Z,1.40
2024-02-24T16:44:52.026Z,1.05
2024-02-24T16:47:19.932Z,1.50
2024-02-24T16:52:15.421Z,2.13
2024-02-24T16:54:42.928Z,2.35
2024-02-24T16:57:10.541Z,1.40
2024-02-24T16:59:39.669Z,3.45
2024-02-24T17:02:07.469Z,2.20
2024-02-24T17:04:36.925Z,2.00
2024-02-24T17:07:04.883Z,1.80
2024-02-24T17:11:59.999Z,2.63
2024-02-24T17:14:27.640Z,20.00
2024-02-24T17:16:55.186Z,19.98
2024-02-24T17:19:22.986Z,6.63
2024-02-24T17:24:18.101Z,2.60
2024-02-24T17:26:47.256Z,2.63
2024-02-24T17:29:14.940Z,2.10
2024-02-24T17:31:42.442Z,2.00
2024-02-24T17:34:11.377Z,1.90
2024-02-24T17:36:40.949Z,1.83
2024-02-24T17:39:08.489Z,2.03
2024-02-24T17:41:36.132Z,2.20
2024-02-24T17:44:05.042Z,1.95
2024-02-24T17:46:33.945Z,2.03
2024-02-24T17:49:03.282Z,2.35
2024-02-24T17:51:34.005Z,1.85
2024-02-24T17:54:02.539Z,2.53
2024-02-24T17:56:33.373Z,2.88
2024-02-24T17:59:00.941Z,2.33
2024-02-24T18:01:29.820Z,3.83
2024-02-24T18:03:59.210Z,3.60
2024-02-24T18:06:27.109Z,2.40
2024-02-24T18:13:51.141Z,4.00
2024-02-24T18:16:18.657Z,4.13
2024-02-24T18:18:46.323Z,4.13
2024-02-24T18:21:19.187Z,4.85
2024-02-24T18:23:46.763Z,5.38
2024-02-24T18:26:14.308Z,3.80
2024-02-24T18:28:42.074Z,3.50
2024-02-24T18:31:09.660Z,2.55
2024-02-24T18:33:37.642Z,2.50
2024-02-24T18:36:05.532Z,2.65
2024-02-24T18:38:33.631Z,2.90
2024-02-24T18:41:01.204Z,3.00
2024-02-24T18:43:28.676Z,3.10
2024-02-24T18:45:56.600Z,2.53
2024-02-24T18:48:24.239Z,2.65
2024-02-24T18:50:51.949Z,2.50
2024-02-24T18:53:19.703Z,2.80
2024-02-24T18:55:47.684Z,4.20
2024-02-24T19:03:10.280Z,6.05
2024-02-24T19:05:38.022Z,6.07
2024-02-24T19:08:05.839Z,3.13
2024-02-24T19:10:35.834Z,2.88
2024-02-24T19:13:03.378Z,3.25
2024-02-24T19:15:31.194Z,2.70
2024-02-24T19:17:58.929Z,3.38
2024-02-24T19:20:26.513Z,3.28
2024-02-24T19:22:54.017Z,3.30
2024-02-24T19:25:22.587Z,4.00
2024-02-24T19:27:50.867Z,4.50
2024-02-24T19:30:18.437Z,5.72
2024-02-24T19:32:46.995Z,3.28
2024-02-24T19:35:14.988Z,4.18
2024-02-24T19:37:42.628Z,3.65
2024-02-24T19:40:10.481Z,3.53
2024-02-24T19:42:38.051Z,3.45
2024-02-24T19:45:05.893Z,3.40
2024-02-24T19:47:33.567Z,3.47
2024-02-24T19:50:01.115Z,3.38
2024-02-24T19:52:28.613Z,3.25
2024-02-24T19:54:56.186Z,4.00
2024-02-24T19:57:23.816Z,4.22
2024-02-24T19:59:51.362Z,3.92
2024-02-24T20:02:18.976Z,4.43
2024-02-24T20:04:46.494Z,4.20
2024-02-24T20:07:15.003Z,3.50
2024-02-24T20:09:44.249Z,4.40
2024-02-24T20:12:14.257Z,6.25
2024-02-24T20:14:43.994Z,5.30
2024-02-24T20:17:14.590Z,6.25
2024-02-24T20:19:45.104Z,8.40
2024-02-24T20:22:13.487Z,5.85
2024-02-24T20:24:40.965Z,5.25
2024-02-24T20:27:08.734Z,5.22
2024-02-24T20:29:36.359Z,5.00
2024-02-24T20:32:03.885Z,4.55
2024-02-24T20:34:31.507Z,2.78
2024-02-24T20:36:59.071Z,8.35
2024-02-24T20:39:26.541Z,6.30
2024-02-24T20:41:54.028Z,4.03
2024-02-24T20:44:21.645Z,5.13
2024-02-24T20:46:50.605Z,6.18
2024-02-24T20:49:22.431Z,2.78
2024-02-24T20:51:50.458Z,7.03
2024-02-24T20:54:22.561Z,4.13
2024-02-24T20:56:50.392Z,4.57
2024-02-24T20:59:18.470Z,3.15
2024-02-24T21:01:46.229Z,3.25
2024-02-24T21:04:13.770Z,3.90
2024-02-24T21:06:43.863Z,3.90
2024-02-24T21:09:15.129Z,2.50
2024-02-24T21:11:42.878Z,3.83
2024-02-24T21:14:11.836Z,3.97
2024-02-24T21:16:39.700Z,2.30
2024-02-24T21:19:08.671Z,1.20
2024-02-24T21:21:36.441Z,3.70
2024-02-24T21:24:04.164Z,3.50
2024-02-24T21:26:31.740Z,3.28
